createdAt,value
2023-02-17T00:00:11.360Z,82.30
2023-02-17T00:02:58.805Z,78.93
2023-02-17T00:05:26.277Z,78.25
2023-02-17T00:07:53.403Z,77.95
2023-02-17T00:10:20.176Z,72.30
2023-02-17T00:12:47.253Z,80.72
2023-02-17T00:15:13.980Z,78.22
2023-02-17T00:17:41.051Z,76.35
2023-02-17T00:20:09.284Z,74.90
2023-02-17T00:22:36.381Z,70.32
2023-02-17T00:25:03.143Z,72.28
2023-02-17T00:27:30.226Z,75.28
2023-02-17T00:29:56.997Z,71.10
2023-02-17T00:32:24.094Z,76.15
2023-02-17T00:34:52.631Z,71.97
2023-02-17T00:37:19.647Z,75.05
2023-02-17T00:39:46.409Z,75.88
2023-02-17T00:42:13.480Z,73.65
2023-02-17T00:44:40.242Z,72.68
2023-02-17T00:47:07.328Z,75.60
2023-02-17T00:49:34.106Z,76.15
2023-02-17T00:52:01.882Z,78.20
2023-02-17T00:54:29.290Z,75.55
2023-02-17T00:56:56.465Z,77.85
2023-02-17T00:59:23.217Z,74.55
2023-02-17T01:01:50.343Z,76.07
2023-02-17T01:04:17.147Z,80.93
2023-02-17T01:06:44.264Z,72.10
2023-02-17T01:09:13.524Z,74.38
2023-02-17T01:11:40.920Z,72.53
2023-02-17T01:14:07.906Z,74.43
2023-02-17T01:16:38.692Z,70.97
2023-02-17T01:19:09.043Z,73.70
2023-02-17T01:21:36.132Z,76.95
2023-02-17T01:24:04.666Z,76.78
2023-02-17T01:26:32.446Z,76.28
2023-02-17T01:28:59.217Z,79.65
2023-02-17T01:31:27.266Z,74.50
2023-02-17T01:33:56.087Z,72.45
2023-02-17T01:36:23.137Z,74.53
2023-02-17T01:38:50.034Z,80.32
2023-02-17T01:41:17.919Z,72.68
2023-02-17T01:44:30.082Z,72.07
2023-02-17T01:46:57.239Z,74.00
2023-02-17T01:49:26.934Z,77.55
2023-02-17T01:52:21.235Z,74.30
2023-02-17T01:54:53.823Z,78.70
2023-02-17T01:57:23.236Z,74.55
2023-02-17T01:59:50.554Z,75.00
2023-02-17T02:02:17.883Z,73.85
2023-02-17T02:04:46.037Z,73.57
2023-02-17T02:07:21.579Z,79.22
2023-02-17T02:09:53.154Z,78.82
2023-02-17T02:12:28.452Z,78.63
2023-02-17T02:14:57.424Z,74.05
2023-02-17T02:17:50.602Z,74.25
2023-02-17T02:20:41.658Z,78.53
2023-02-17T02:23:46.315Z,72.82
2023-02-17T02:26:31.143Z,77.35
2023-02-17T02:29:19.638Z,80.03
2023-02-17T02:32:34.813Z,77.25
2023-02-17T02:35:15.542Z,68.97
2023-02-17T02:38:07.217Z,68.88
2023-02-17T02:40:36.778Z,72.18
2023-02-17T02:43:03.692Z,69.03
2023-02-17T02:45:30.863Z,66.55
2023-02-17T02:47:57.817Z,65.63
2023-02-17T02:50:50.576Z,68.05
2023-02-17T02:53:36.405Z,65.47
2023-02-17T02:56:27.096Z,70.00
2023-02-17T02:59:31.739Z,63.13
2023-02-17T03:02:11.250Z,67.22
2023-02-17T03:04:38.972Z,64.68
2023-02-17T03:07:21.191Z,69.25
2023-02-17T03:09:51.745Z,62.80
2023-02-17T03:12:19.490Z,60.97
2023-02-17T03:14:47.911Z,68.45
2023-02-17T03:17:14.948Z,60.53
2023-02-17T03:19:41.741Z,61.55
2023-02-17T03:22:14.266Z,60.90
2023-02-17T03:24:41.073Z,56.92
2023-02-17T03:27:08.126Z,59.55
2023-02-17T03:29:34.888Z,57.30
2023-02-17T03:32:01.985Z,57.45
2023-02-17T03:34:28.755Z,59.25
2023-02-17T03:36:55.905Z,57.13
2023-02-17T03:39:22.685Z,53.78
2023-02-17T03:41:51.697Z,57.40
2023-02-17T03:44:18.811Z,58.58
2023-02-17T03:46:46.393Z,52.83
2023-02-17T03:49:13.234Z,54.33
2023-02-17T03:51:40.342Z,54.40
2023-02-17T03:54:07.118Z,50.22
2023-02-17T03:56:34.159Z,53.40
2023-02-17T03:59:00.957Z,52.67
2023-02-17T04:01:28.018Z,53.88
2023-02-17T04:03:54.931Z,51.17
2023-02-17T04:06:22.141Z,52.83
2023-02-17T04:08:48.930Z,52.72
2023-02-17T04:11:16.107Z,51.80
2023-02-17T04:13:42.884Z,51.90
2023-02-17T04:16:10.267Z,57.55
2023-02-17T04:18:37.497Z,55.20
2023-02-17T04:21:05.143Z,51.05
2023-02-17T04:23:31.952Z,53.60
2023-02-17T04:25:59.004Z,57.28
2023-02-17T04:28:26.387Z,55.92
2023-02-17T04:30:53.595Z,54.80
2023-02-17T04:33:20.397Z,56.08
2023-02-17T04:35:47.546Z,56.55
2023-02-17T04:38:14.337Z,55.40
2023-02-17T04:40:41.550Z,54.10
2023-02-17T04:43:08.592Z,56.20
2023-02-17T04:45:36.721Z,57.13
2023-02-17T04:48:03.703Z,53.33
2023-02-17T04:50:30.824Z,51.67
2023-02-17T04:52:57.569Z,55.58
2023-02-17T04:55:24.646Z,55.08
2023-02-17T04:57:51.369Z,55.55
2023-02-17T05:00:18.724Z,54.35
2023-02-17T05:02:45.461Z,53.90
2023-02-17T05:05:15.324Z,53.65
2023-02-17T05:07:42.901Z,55.85
2023-02-17T05:10:10.221Z,50.92
2023-02-17T05:12:36.981Z,51.97
2023-02-17T05:15:04.440Z,59.15
2023-02-17T05:17:31.264Z,53.65
2023-02-17T05:19:58.587Z,50.60
2023-02-17T05:22:25.518Z,54.28
2023-02-17T05:24:52.788Z,47.15
2023-02-17T05:27:19.564Z,48.17
2023-02-17T05:29:46.714Z,51.72
2023-02-17T05:32:13.478Z,52.30
2023-02-17T05:34:40.611Z,50.22
2023-02-17T05:37:07.346Z,51.50
2023-02-17T05:39:34.420Z,47.90
2023-02-17T05:42:01.189Z,48.10
2023-02-17T05:44:28.319Z,48.95
2023-02-17T05:46:55.066Z,50.63
2023-02-17T05:49:22.192Z,48.63
2023-02-17T05:51:48.949Z,47.03
2023-02-17T05:54:15.981Z,48.30
2023-02-17T05:56:42.763Z,49.15
2023-02-17T05:59:09.955Z,48.92
2023-02-17T06:01:37.706Z,49.25
2023-02-17T06:04:04.914Z,50.83
2023-02-17T06:06:31.685Z,49.88
2023-02-17T06:08:58.824Z,48.78
2023-02-17T06:11:25.717Z,47.33
2023-02-17T06:13:52.754Z,46.78
2023-02-17T06:16:20.066Z,45.33
2023-02-17T06:18:47.174Z,44.10
2023-02-17T06:21:13.998Z,44.15
2023-02-17T06:23:41.032Z,46.35
2023-02-17T06:26:08.250Z,44.92
2023-02-17T06:28:35.345Z,47.00
2023-02-17T06:31:02.229Z,44.75
2023-02-17T06:33:29.387Z,49.95
2023-02-17T06:35:56.399Z,46.13
2023-02-17T06:38:23.576Z,52.75
2023-02-17T06:40:50.320Z,47.70
2023-02-17T06:43:17.387Z,47.17
2023-02-17T06:45:44.241Z,48.30
2023-02-17T06:48:11.373Z,48.45
2023-02-17T06:50:38.285Z,46.65
2023-02-17T06:53:05.489Z,47.47
2023-02-17T06:55:32.313Z,49.72
2023-02-17T06:57:59.402Z,44.30
2023-02-17T07:00:27.123Z,47.58
2023-02-17T07:02:54.406Z,50.20
2023-02-17T07:05:21.356Z,47.60
2023-02-17T07:07:48.386Z,51.42
2023-02-17T07:10:15.176Z,53.38
2023-02-17T07:12:42.211Z,47.47
2023-02-17T07:15:12.012Z,48.85
2023-02-17T07:17:39.583Z,48.90
2023-02-17T07:20:07.158Z,50.28
2023-02-17T07:22:34.216Z,55.03
2023-02-17T07:25:01.031Z,53.58
2023-02-17T07:27:28.198Z,49.65
2023-02-17T07:29:55.602Z,55.15
2023-02-17T07:32:22.849Z,54.85
2023-02-17T07:34:49.621Z,57.83
2023-02-17T07:37:16.740Z,57.60
2023-02-17T07:39:43.619Z,55.05
2023-02-17T07:42:11.486Z,53.42
2023-02-17T07:44:38.221Z,52.28
2023-02-17T07:47:05.302Z,58.75
2023-02-17T07:49:32.129Z,54.80
2023-02-17T07:51:59.209Z,56.22
2023-02-17T07:54:26.075Z,49.30
2023-02-17T07:56:53.187Z,52.28
2023-02-17T07:59:19.971Z,52.42
2023-02-17T08:01:47.179Z,50.92
2023-02-17T08:04:13.973Z,55.33
2023-02-17T08:06:41.094Z,57.53
2023-02-17T08:09:28.422Z,57.55
2023-02-17T08:12:13.962Z,60.67
2023-02-17T08:14:40.860Z,61.13
2023-02-17T08:17:08.025Z,52.40
2023-02-17T08:19:47.426Z,52.53
2023-02-17T08:22:16.099Z,52.03
2023-02-17T08:24:42.994Z,51.08
2023-02-17T08:27:10.115Z,54.97
2023-02-17T08:29:36.919Z,47.17
2023-02-17T08:32:04.198Z,55.42
2023-02-17T08:34:33.912Z,48.38
2023-02-17T08:37:01.686Z,51.28
2023-02-17T08:39:28.701Z,47.70
2023-02-17T08:41:55.906Z,49.58
2023-02-17T08:44:22.898Z,47.67
2023-02-17T08:46:50.580Z,51.35
2023-02-17T08:49:18.911Z,60.55
2023-02-17T08:51:46.104Z,51.65
2023-02-17T08:54:12.937Z,54.65
2023-02-17T08:56:40.296Z,56.65
2023-02-17T08:59:07.747Z,51.40
2023-02-17T09:01:35.492Z,47.45
2023-02-17T09:04:02.891Z,53.95
2023-02-17T09:06:50.125Z,49.78
2023-02-17T09:09:18.020Z,54.00
2023-02-17T09:11:45.366Z,48.95
2023-02-17T09:14:12.358Z,49.55
2023-02-17T09:16:41.417Z,47.30
2023-02-17T09:19:08.445Z,50.92
2023-02-17T09:21:35.529Z,46.50
2023-02-17T09:24:02.293Z,52.95
2023-02-17T09:26:29.684Z,45.60
2023-02-17T09:28:57.956Z,49.78
2023-02-17T09:31:26.157Z,47.17
2023-02-17T09:33:53.152Z,44.72
2023-02-17T09:36:28.415Z,46.97
2023-02-17T09:38:55.337Z,45.53
2023-02-17T09:41:42.369Z,46.13
2023-02-17T09:44:39.429Z,42.05
2023-02-17T09:47:16.370Z,42.85
2023-02-17T09:49:45.702Z,47.67
2023-02-17T09:52:31.676Z,49.40
2023-02-17T09:55:06.815Z,44.22
2023-02-17T09:57:40.461Z,52.00
2023-02-17T10:00:08.863Z,49.28
2023-02-17T10:02:39.429Z,49.13
2023-02-17T10:05:07.883Z,43.55
2023-02-17T10:07:47.344Z,49.22
2023-02-17T10:10:35.697Z,45.40
2023-02-17T10:13:02.963Z,44.53
2023-02-17T10:15:32.182Z,44.17
2023-02-17T10:18:11.803Z,46.40
2023-02-17T10:20:42.922Z,44.42
2023-02-17T10:23:19.344Z,46.90
2023-02-17T10:26:01.468Z,44.35
2023-02-17T10:28:56.328Z,44.72
2023-02-17T10:31:37.871Z,45.92
2023-02-17T10:34:38.091Z,47.25
2023-02-17T10:37:13.145Z,43.13
2023-02-17T10:39:48.726Z,45.38
2023-02-17T10:42:28.663Z,43.78
2023-02-17T10:45:00.885Z,41.97
2023-02-17T10:47:27.690Z,41.97
2023-02-17T10:49:55.224Z,44.65
2023-02-17T10:52:24.505Z,45.85
2023-02-17T10:54:59.930Z,46.85
2023-02-17T10:57:30.184Z,46.17
2023-02-17T10:59:57.284Z,46.22
2023-02-17T11:02:41.329Z,42.75
2023-02-17T11:05:09.157Z,50.30
2023-02-17T11:07:37.311Z,49.22
2023-02-17T11:10:37.563Z,41.20
2023-02-17T11:13:05.082Z,43.65
2023-02-17T11:15:43.179Z,51.88
2023-02-17T11:18:11.843Z,50.78
2023-02-17T11:20:39.066Z,43.75
2023-02-17T11:23:16.601Z,48.70
2023-02-17T11:25:43.798Z,49.17
2023-02-17T11:28:14.755Z,52.55
2023-02-17T11:30:53.012Z,42.67
2023-02-17T11:33:22.702Z,48.15
2023-02-17T11:35:55.852Z,42.83
2023-02-17T11:38:28.132Z,44.22
2023-02-17T11:41:00.297Z,43.60
2023-02-17T11:43:31.285Z,42.78
2023-02-17T11:46:01.144Z,39.58
2023-02-17T11:48:28.446Z,37.47
2023-02-17T11:51:15.016Z,38.83
2023-02-17T11:54:17.176Z,41.83
2023-02-17T11:57:07.418Z,38.78
2023-02-17T11:59:45.283Z,37.72
2023-02-17T12:02:38.262Z,38.75
2023-02-17T12:05:20.517Z,38.60
2023-02-17T12:08:23.977Z,45.63
2023-02-17T12:11:09.752Z,37.95
2023-02-17T12:13:51.752Z,38.38
2023-02-17T12:16:21.770Z,34.00
2023-02-17T12:19:03.776Z,36.47
2023-02-17T12:21:37.075Z,35.15
2023-02-17T12:24:22.073Z,36.90
2023-02-17T12:27:28.072Z,33.22
2023-02-17T12:30:31.147Z,33.60
2023-02-17T12:33:32.186Z,36.58
2023-02-17T12:36:02.474Z,37.22
2023-02-17T12:38:34.846Z,38.42
2023-02-17T12:41:17.835Z,38.75
2023-02-17T12:44:00.153Z,34.88
2023-02-17T12:46:41.407Z,38.83
2023-02-17T12:49:20.629Z,36.00
2023-02-17T12:51:56.643Z,35.95
2023-02-17T12:54:27.084Z,36.40
2023-02-17T12:57:10.578Z,37.83
2023-02-17T12:59:41.929Z,39.80
2023-02-17T13:02:14.033Z,43.60
2023-02-17T13:04:42.866Z,38.15
2023-02-17T13:07:21.428Z,43.45
2023-02-17T13:09:49.166Z,38.08
2023-02-17T13:12:17.445Z,37.03
2023-02-17T13:14:58.616Z,35.03
2023-02-17T13:17:25.399Z,33.63
2023-02-17T13:20:04.616Z,33.88
2023-02-17T13:22:31.436Z,29.50
2023-02-17T13:24:58.495Z,28.83
2023-02-17T13:27:28.307Z,31.27
2023-02-17T13:30:02.789Z,28.65
2023-02-17T13:32:31.247Z,33.88
2023-02-17T13:35:08.386Z,32.67
2023-02-17T13:37:35.173Z,30.98
2023-02-17T13:40:24.227Z,30.65
2023-02-17T13:42:52.086Z,32.65
2023-02-17T13:45:37.971Z,32.90
2023-02-17T13:48:19.680Z,29.05
2023-02-17T13:50:48.405Z,29.95
2023-02-17T13:53:24.365Z,37.33
2023-02-17T13:55:51.939Z,35.30
2023-02-17T13:58:23.433Z,32.78
2023-02-17T14:00:50.585Z,37.90
2023-02-17T14:03:31.183Z,37.25
2023-02-17T14:05:59.099Z,37.08
2023-02-17T14:08:42.528Z,37.72
2023-02-17T14:11:10.555Z,33.08
2023-02-17T14:13:38.532Z,35.85
2023-02-17T14:16:07.345Z,34.30
2023-02-17T14:18:36.555Z,34.33
2023-02-17T14:21:11.723Z,36.50
2023-02-17T14:23:46.362Z,35.45
2023-02-17T14:26:35.151Z,31.15
2023-02-17T14:29:06.491Z,38.35
2023-02-17T14:31:49.972Z,32.42
2023-02-17T14:34:28.461Z,34.88
2023-02-17T14:36:55.812Z,30.27
2023-02-17T14:39:22.599Z,30.40
2023-02-17T14:41:49.634Z,28.95
2023-02-17T14:44:16.646Z,29.80
2023-02-17T14:46:43.817Z,31.30
2023-02-17T14:49:10.656Z,29.30
2023-02-17T14:51:37.969Z,28.38
2023-02-17T14:54:15.824Z,27.00
2023-02-17T14:57:03.995Z,28.60
2023-02-17T14:59:31.532Z,26.58
2023-02-17T15:01:58.632Z,25.85
2023-02-17T15:04:25.541Z,28.52
2023-02-17T15:06:54.697Z,26.88
2023-02-17T15:09:28.102Z,26.27
2023-02-17T15:11:55.989Z,30.83
2023-02-17T15:14:22.835Z,23.55
2023-02-17T15:16:50.163Z,27.35
2023-02-17T15:19:19.560Z,26.02
2023-02-17T15:21:50.965Z,29.48
2023-02-17T15:24:23.219Z,24.95
2023-02-17T15:26:50.327Z,27.35
2023-02-17T15:29:18.664Z,25.67
2023-02-17T15:31:46.414Z,25.33
2023-02-17T15:34:17.577Z,27.70
2023-02-17T15:36:44.900Z,28.20
2023-02-17T15:39:15.588Z,26.35
2023-02-17T15:41:43.515Z,28.20
2023-02-17T15:44:27.474Z,28.27
2023-02-17T15:46:55.276Z,30.58
2023-02-17T15:49:22.535Z,30.90
2023-02-17T15:51:49.667Z,30.35
2023-02-17T15:54:19.308Z,29.25
2023-02-17T15:56:49.413Z,28.98
2023-02-17T15:59:23.596Z,32.20
2023-02-17T16:01:56.104Z,29.92
2023-02-17T16:04:22.899Z,32.63
2023-02-17T16:06:49.996Z,30.83
2023-02-17T16:09:16.789Z,33.95
2023-02-17T16:11:47.657Z,32.80
2023-02-17T16:14:23.061Z,31.70
2023-02-17T16:16:50.167Z,28.92
2023-02-17T16:19:16.926Z,31.10
2023-02-17T16:21:43.962Z,31.02
2023-02-17T16:24:10.762Z,29.60
2023-02-17T16:26:37.934Z,29.40
2023-02-17T16:29:13.081Z,30.38
2023-02-17T16:31:40.328Z,32.28
2023-02-17T16:34:07.165Z,33.50
2023-02-17T16:36:34.737Z,30.48
2023-02-17T16:39:04.053Z,33.53
2023-02-17T16:41:31.128Z,34.90
2023-02-17T16:43:57.994Z,32.97
2023-02-17T16:46:29.752Z,31.92
2023-02-17T16:48:57.282Z,31.75
2023-02-17T16:51:24.405Z,29.55
2023-02-17T16:53:51.207Z,29.40
2023-02-17T16:56:21.851Z,29.17
2023-02-17T16:58:48.629Z,29.52
2023-02-17T17:01:15.848Z,30.38
2023-02-17T17:03:42.997Z,28.25
2023-02-17T17:06:20.625Z,29.95
2023-02-17T17:08:47.552Z,27.45
2023-02-17T17:11:16.034Z,29.95
2023-02-17T17:13:44.126Z,29.10
2023-02-17T17:16:16.159Z,31.83
2023-02-17T17:18:43.254Z,30.83
2023-02-17T17:21:14.664Z,28.17
2023-02-17T17:23:41.541Z,35.08
2023-02-17T17:26:25.177Z,37.58
2023-02-17T17:28:52.050Z,33.00
2023-02-17T17:31:20.230Z,32.03
2023-02-17T17:33:47.960Z,34.60
2023-02-17T17:36:18.123Z,31.58
2023-02-17T17:38:45.119Z,30.98
2023-02-17T17:41:12.605Z,32.55
2023-02-17T17:43:39.402Z,31.40
2023-02-17T17:46:12.104Z,32.78
2023-02-17T17:48:38.911Z,33.63
2023-02-17T17:51:06.171Z,37.30
2023-02-17T17:53:33.063Z,38.10
2023-02-17T17:56:00.192Z,41.08
2023-02-17T17:58:27.016Z,34.15
2023-02-17T18:00:54.632Z,35.15
2023-02-17T18:03:21.489Z,30.80
2023-02-17T18:05:48.557Z,32.42
2023-02-17T18:08:17.535Z,31.67
2023-02-17T18:10:44.638Z,39.30
2023-02-17T18:13:11.519Z,33.17
2023-02-17T18:15:39.436Z,34.70
2023-02-17T18:18:06.219Z,36.17
2023-02-17T18:20:33.368Z,33.13
2023-02-17T18:23:00.167Z,34.15
2023-02-17T18:25:27.296Z,31.60
2023-02-17T18:27:55.832Z,31.27
2023-02-17T18:30:27.240Z,30.63
2023-02-17T18:32:54.214Z,32.22
2023-02-17T18:35:21.414Z,33.75
2023-02-17T18:37:48.382Z,35.83
2023-02-17T18:40:16.959Z,39.58
2023-02-17T18:42:47.630Z,40.03
2023-02-17T18:45:15.752Z,36.55
2023-02-17T18:47:43.079Z,35.05
2023-02-17T18:50:11.435Z,31.73
2023-02-17T18:52:38.930Z,28.95
2023-02-17T18:55:06.399Z,24.63
2023-02-17T18:57:33.421Z,29.90
2023-02-17T19:00:00.764Z,23.67
2023-02-17T19:02:27.598Z,23.20
2023-02-17T19:04:55.245Z,24.00
2023-02-17T19:07:22.372Z,23.17
2023-02-17T19:09:53.595Z,22.13
2023-02-17T19:12:20.637Z,23.92
2023-02-17T19:14:53.122Z,21.02
2023-02-17T19:17:20.010Z,21.88
2023-02-17T19:19:47.074Z,20.38
2023-02-17T19:22:13.890Z,19.30
2023-02-17T19:24:42.100Z,23.83
2023-02-17T19:27:09.084Z,24.00
2023-02-17T19:29:36.182Z,19.02
2023-02-17T19:32:03.408Z,22.70
2023-02-17T19:34:31.316Z,19.75
2023-02-17T19:36:58.408Z,16.85
2023-02-17T19:39:25.583Z,15.10
2023-02-17T19:41:52.441Z,13.38
2023-02-17T19:44:20.119Z,12.55
2023-02-17T19:46:47.131Z,13.57
2023-02-17T19:49:14.326Z,12.25
2023-02-17T19:51:41.101Z,13.93
2023-02-17T19:54:08.368Z,12.68
2023-02-17T19:56:36.412Z,11.10
2023-02-17T19:59:03.517Z,10.75
2023-02-17T20:01:32.086Z,12.27
2023-02-17T20:03:59.580Z,12.48
2023-02-17T20:06:28.662Z,13.38
2023-02-17T20:09:06.672Z,12.23
2023-02-17T20:11:33.510Z,17.83
2023-02-17T20:14:01.043Z,15.55
2023-02-17T20:16:28.225Z,17.85
2023-02-17T20:18:55.718Z,14.45
2023-02-17T20:21:24.453Z,18.35
2023-02-17T20:23:51.996Z,13.98
2023-02-17T20:26:21.960Z,13.50
2023-02-17T20:28:49.487Z,13.07
2023-02-17T20:31:16.388Z,19.40
2023-02-17T20:33:43.587Z,10.60
2023-02-17T20:36:11.747Z,11.90
2023-02-17T20:38:39.638Z,14.20
2023-02-17T20:41:10.153Z,18.05
2023-02-17T20:43:37.748Z,14.35
2023-02-17T20:46:05.414Z,16.83
2023-02-17T20:48:33.044Z,20.58
2023-02-17T20:50:59.888Z,18.58
2023-02-17T20:53:27.086Z,18.55
2023-02-17T20:55:53.922Z,17.38
2023-02-17T20:58:21.023Z,18.98
2023-02-17T21:00:48.488Z,18.73
2023-02-17T21:03:15.703Z,21.50
2023-02-17T21:05:42.624Z,17.67
2023-02-17T21:08:09.940Z,17.92
2023-02-17T21:10:36.929Z,14.55
2023-02-17T21:13:04.017Z,16.38
2023-02-17T21:15:30.817Z,14.90
2023-02-17T21:17:57.920Z,14.73
2023-02-17T21:20:24.663Z,15.23
2023-02-17T21:22:51.789Z,15.07
2023-02-17T21:25:18.728Z,16.10
2023-02-17T21:27:45.812Z,16.05
2023-02-17T21:30:13.153Z,15.00
2023-02-17T21:32:40.446Z,17.48
2023-02-17T21:35:09.376Z,15.98
2023-02-17T21:37:38.861Z,15.38
2023-02-17T21:40:07.556Z,16.35
2023-02-17T21:42:55.838Z,13.15
2023-02-17T21:45:23.072Z,14.77
2023-02-17T21:47:50.286Z,12.73
2023-02-17T21:50:18.155Z,14.05
2023-02-17T21:52:45.268Z,14.85
2023-02-17T21:55:12.087Z,11.88
2023-02-17T21:57:39.176Z,14.18
2023-02-17T22:00:06.803Z,12.30
2023-02-17T22:02:35.948Z,10.15
2023-02-17T22:05:02.833Z,11.70
2023-02-17T22:07:29.965Z,12.55
2023-02-17T22:09:57.910Z,12.25
2023-02-17T22:12:24.932Z,11.00
2023-02-17T22:14:51.668Z,11.75
2023-02-17T22:17:18.825Z,9.38
2023-02-17T22:19:45.612Z,10.55
2023-02-17T22:22:12.687Z,13.88
2023-02-17T22:24:39.431Z,12.02
2023-02-17T22:27:06.571Z,12.40
2023-02-17T22:29:33.287Z,12.25
2023-02-17T22:32:00.421Z,10.40
2023-02-17T22:34:28.765Z,8.77
2023-02-17T22:36:55.959Z,11.52
2023-02-17T22:39:22.788Z,8.07
2023-02-17T22:41:49.877Z,11.18
2023-02-17T22:44:16.671Z,8.73
2023-02-17T22:46:43.787Z,7.53
2023-02-17T22:49:10.561Z,7.97
2023-02-17T22:51:39.097Z,9.05
2023-02-17T22:54:06.397Z,10.00
2023-02-17T22:56:33.455Z,6.97
2023-02-17T22:59:04.383Z,7.10
2023-02-17T23:01:33.201Z,6.88
2023-02-17T23:04:00.048Z,5.88
2023-02-17T23:06:29.589Z,8.93
2023-02-17T23:08:56.448Z,9.55
2023-02-17T23:11:44.788Z,5.82
2023-02-17T23:14:12.110Z,5.93
2023-02-17T23:16:39.333Z,6.88
2023-02-17T23:19:10.450Z,7.40
2023-02-17T23:21:37.628Z,6.32
2023-02-17T23:24:04.614Z,9.13
2023-02-17T23:26:31.780Z,8.77
2023-02-17T23:28:58.654Z,7.78
2023-02-17T23:31:25.955Z,8.50
2023-02-17T23:33:52.747Z,9.57
2023-02-17T23:36:19.885Z,8.90
2023-02-17T23:38:46.691Z,8.68
2023-02-17T23:41:13.823Z,9.48
2023-02-17T23:43:41.320Z,8.77
2023-02-17T23:46:08.634Z,9.38
2023-02-17T23:48:35.779Z,11.05
2023-02-17T23:51:04.277Z,13.45
2023-02-17T23:53:31.310Z,11.20
2023-02-17T23:56:09.049Z,12.80
2023-02-17T23:58:36.082Z,11.77
